createdAt,value
2023-09-15T00:01:00.986Z,76.09
2023-09-15T00:03:45.717Z,76.23
2023-09-15T00:06:25.405Z,76.76
2023-09-15T00:09:05.935Z,75.95
2023-09-15T00:11:50.069Z,75.45
2023-09-15T00:14:29.723Z,75.54
2023-09-15T00:17:10.482Z,75.50
2023-09-15T00:19:54.976Z,75.53
2023-09-15T00:22:34.281Z,76.06
2023-09-15T00:25:14.043Z,76.22
2023-09-15T00:27:54.057Z,75.99
2023-09-15T00:30:36.511Z,76.09
2023-09-15T00:33:15.905Z,76.20
2023-09-15T00:36:00.370Z,76.66
2023-09-15T00:38:39.698Z,76.41
2023-09-15T00:41:19.175Z,76.20
2023-09-15T00:43:59.115Z,75.95
2023-09-15T00:46:38.685Z,75.83
2023-09-15T00:49:18.380Z,76.34
2023-09-15T00:52:03.294Z,76.26
2023-09-15T00:54:44.104Z,75.65
2023-09-15T00:57:24.484Z,75.74
2023-09-15T01:00:05.005Z,76.84
2023-09-15T01:02:44.989Z,77.65
2023-09-15T01:05:27.860Z,77.30
2023-09-15T01:08:13.008Z,77.04
2023-09-15T01:10:52.462Z,77.52
2023-09-15T01:13:31.908Z,77.37
2023-09-15T01:16:19.936Z,77.45
2023-09-15T01:19:10.375Z,77.29
2023-09-15T01:22:22.787Z,77.72
2023-09-15T01:25:38.592Z,78.11
2023-09-15T01:28:50.212Z,77.59
2023-09-15T01:31:35.510Z,76.93
2023-09-15T01:34:15.732Z,77.16
2023-09-15T01:36:56.377Z,77.40
2023-09-15T01:39:35.739Z,77.78
2023-09-15T01:42:15.227Z,78.34
2023-09-15T01:44:54.786Z,78.02
2023-09-15T01:47:41.842Z,78.34
2023-09-15T01:50:23.022Z,78.12
2023-09-15T01:53:08.636Z,77.76
2023-09-15T01:55:51.439Z,77.48
2023-09-15T01:58:30.940Z,78.15
2023-09-15T02:01:10.408Z,78.64
2023-09-15T02:03:54.888Z,78.61
2023-09-15T02:06:34.322Z,78.81
2023-09-15T02:09:14.228Z,78.44
2023-09-15T02:11:53.784Z,78.90
2023-09-15T02:14:34.619Z,79.15
2023-09-15T02:17:17.495Z,79.49
2023-09-15T02:20:01.926Z,79.63
2023-09-15T02:22:41.373Z,79.59
2023-09-15T02:25:20.778Z,80.16
2023-09-15T02:28:00.222Z,80.38
2023-09-15T02:30:39.634Z,80.41
2023-09-15T02:33:19.048Z,79.77
2023-09-15T02:36:03.827Z,79.79
2023-09-15T02:38:43.187Z,78.91
2023-09-15T02:41:22.533Z,78.40
2023-09-15T02:44:01.861Z,78.15
2023-09-15T02:46:41.356Z,78.08
2023-09-15T02:49:20.705Z,78.37
2023-09-15T02:52:07.386Z,78.29
2023-09-15T02:54:46.691Z,78.28
2023-09-15T02:57:26.056Z,78.44
2023-09-15T03:00:06.701Z,78.57
2023-09-15T03:02:47.301Z,79.22
2023-09-15T03:05:28.001Z,79.38
2023-09-15T03:08:13.197Z,79.43
2023-09-15T03:10:52.544Z,79.47
2023-09-15T03:13:31.827Z,79.21
2023-09-15T03:16:19.241Z,79.43
2023-09-15T03:18:58.817Z,79.85
2023-09-15T03:21:38.204Z,80.02
2023-09-15T03:24:22.655Z,80.69
2023-09-15T03:27:02.008Z,81.20
2023-09-15T03:29:41.314Z,80.87
2023-09-15T03:32:20.699Z,81.01
2023-09-15T03:35:00.035Z,81.08
2023-09-15T03:37:40.443Z,81.30
2023-09-15T03:40:26.852Z,81.54
2023-09-15T03:43:06.504Z,81.72
2023-09-15T03:45:45.856Z,81.66
2023-09-15T03:48:25.281Z,81.44
2023-09-15T03:51:04.657Z,81.18
2023-09-15T03:53:44.245Z,81.47
2023-09-15T03:56:28.690Z,81.53
2023-09-15T03:59:09.145Z,81.31
2023-09-15T04:01:49.858Z,81.07
2023-09-15T04:04:29.200Z,81.10
2023-09-15T04:07:08.637Z,81.26
2023-09-15T04:09:48.163Z,81.55
2023-09-15T04:12:32.596Z,81.40
2023-09-15T04:15:13.590Z,81.02
2023-09-15T04:17:53.251Z,81.21
2023-09-15T04:20:45.353Z,81.20
2023-09-15T04:23:26.274Z,80.64
2023-09-15T04:26:06.435Z,80.76
2023-09-15T04:28:50.822Z,81.01
2023-09-15T04:31:30.189Z,81.12
2023-09-15T04:34:09.670Z,80.73
2023-09-15T04:36:49.126Z,81.08
2023-09-15T04:39:30.088Z,81.51
2023-09-15T04:42:09.513Z,81.45
2023-09-15T04:44:54.029Z,81.59
2023-09-15T04:47:43.063Z,81.33
2023-09-15T04:50:22.464Z,81.65
2023-09-15T04:53:04.931Z,81.57
2023-09-15T04:55:44.720Z,81.60
2023-09-15T04:58:24.128Z,81.52
2023-09-15T05:01:12.624Z,81.44
2023-09-15T05:03:52.081Z,81.23
2023-09-15T05:06:31.540Z,81.28
2023-09-15T05:09:12.553Z,81.77
2023-09-15T05:11:54.900Z,81.85
2023-09-15T05:14:35.135Z,81.82
2023-09-15T05:17:19.550Z,82.13
2023-09-15T05:19:59.508Z,82.08
2023-09-15T05:22:38.916Z,81.81
2023-09-15T05:25:18.304Z,81.79
2023-09-15T05:27:57.674Z,82.10
2023-09-15T05:30:40.375Z,82.01
2023-09-15T05:33:24.774Z,82.24
2023-09-15T05:36:04.748Z,82.65
2023-09-15T05:38:44.056Z,82.66
2023-09-15T05:41:23.532Z,82.33
2023-09-15T05:44:02.853Z,82.09
2023-09-15T05:46:42.393Z,81.90
2023-09-15T05:49:29.515Z,81.71
2023-09-15T05:52:10.342Z,81.86
2023-09-15T05:54:49.750Z,81.39
2023-09-15T05:57:29.093Z,80.90
2023-09-15T06:00:08.433Z,80.76
2023-09-15T06:02:47.834Z,80.77
2023-09-15T06:05:32.323Z,80.63
2023-09-15T06:08:12.079Z,80.39
2023-09-15T06:10:51.563Z,80.31
2023-09-15T06:13:30.978Z,80.23
2023-09-15T06:16:11.128Z,80.15
2023-09-15T06:18:51.380Z,80.07
2023-09-15T06:21:35.831Z,80.07
2023-09-15T06:24:15.288Z,80.67
2023-09-15T06:26:57.308Z,80.18
2023-09-15T06:29:36.689Z,80.17
2023-09-15T06:32:16.048Z,80.71
2023-09-15T06:34:55.448Z,80.79
2023-09-15T06:37:39.871Z,80.79
2023-09-15T06:40:19.842Z,81.10
2023-09-15T06:42:59.319Z,81.23
2023-09-15T06:45:38.810Z,81.46
2023-09-15T06:48:18.163Z,81.95
2023-09-15T06:50:57.491Z,82.23
2023-09-15T06:53:41.889Z,82.25
2023-09-15T06:56:21.320Z,81.97
2023-09-15T06:59:00.659Z,82.14
2023-09-15T07:01:41.732Z,81.68
2023-09-15T07:04:21.262Z,81.71
2023-09-15T07:07:00.776Z,81.95
2023-09-15T07:09:45.328Z,82.25
2023-09-15T07:12:24.722Z,82.16
2023-09-15T07:15:06.414Z,82.25
2023-09-15T07:17:45.905Z,82.01
2023-09-15T07:20:25.358Z,81.73
2023-09-15T07:23:05.500Z,81.65
2023-09-15T07:25:52.869Z,81.91
2023-09-15T07:28:32.444Z,82.04
2023-09-15T07:31:12.493Z,81.73
2023-09-15T07:33:51.947Z,81.68
2023-09-15T07:36:31.502Z,81.90
2023-09-15T07:39:11.781Z,81.94
2023-09-15T07:41:56.188Z,81.16
2023-09-15T07:44:35.534Z,80.69
2023-09-15T07:47:17.028Z,80.84
2023-09-15T07:49:56.373Z,80.70
2023-09-15T07:52:35.981Z,80.42
2023-09-15T07:55:15.836Z,79.83
2023-09-15T07:58:00.349Z,80.05
2023-09-15T08:00:40.306Z,80.15
2023-09-15T08:03:19.664Z,80.73
2023-09-15T08:06:01.699Z,80.64
2023-09-15T08:08:42.044Z,78.68
2023-09-15T08:11:21.574Z,78.13
2023-09-15T08:14:06.020Z,77.64
2023-09-15T08:16:45.577Z,77.53
2023-09-15T08:19:25.003Z,76.21
2023-09-15T08:22:04.472Z,76.14
2023-09-15T08:24:44.227Z,75.16
2023-09-15T08:27:23.810Z,75.47
2023-09-15T08:30:09.136Z,75.71
2023-09-15T08:32:48.829Z,74.81
2023-09-15T08:35:28.339Z,73.87
2023-09-15T08:38:10.085Z,73.61
2023-09-15T08:40:57.440Z,72.48
2023-09-15T08:43:37.251Z,72.91
2023-09-15T08:46:23.530Z,72.16
2023-09-15T08:49:07.731Z,72.11
2023-09-15T08:51:48.228Z,71.32
2023-09-15T08:54:28.101Z,70.96
2023-09-15T08:57:08.073Z,70.16
2023-09-15T08:59:48.851Z,69.74
2023-09-15T09:02:35.032Z,69.44
2023-09-15T09:05:14.932Z,69.16
2023-09-15T09:07:58.012Z,69.77
2023-09-15T09:10:37.537Z,68.66
2023-09-15T09:13:29.770Z,67.94
2023-09-15T09:16:13.199Z,68.51
2023-09-15T09:19:09.521Z,66.83
2023-09-15T09:21:49.022Z,67.60
2023-09-15T09:24:31.982Z,66.62
2023-09-15T09:27:17.075Z,66.01
2023-09-15T09:29:56.452Z,64.09
2023-09-15T09:32:35.938Z,64.59
2023-09-15T09:35:21.112Z,64.85
2023-09-15T09:38:02.165Z,64.74
2023-09-15T09:40:41.641Z,64.87
2023-09-15T09:43:21.868Z,65.30
2023-09-15T09:46:01.318Z,63.27
2023-09-15T09:48:42.649Z,61.52
2023-09-15T09:51:27.357Z,63.10
2023-09-15T09:54:06.985Z,62.39
2023-09-15T09:56:46.345Z,60.81
2023-09-15T09:59:25.718Z,60.98
2023-09-15T10:02:05.097Z,60.17
2023-09-15T10:04:44.437Z,60.14
2023-09-15T10:07:29.249Z,61.03
2023-09-15T10:10:09.479Z,59.83
2023-09-15T10:12:49.476Z,59.20
2023-09-15T10:15:29.769Z,58.96
2023-09-15T10:18:10.256Z,59.13
2023-09-15T10:20:52.136Z,57.67
2023-09-15T10:23:38.841Z,56.85
2023-09-15T10:26:18.337Z,55.53
2023-09-15T10:28:59.027Z,54.13
2023-09-15T10:31:38.994Z,52.67
2023-09-15T10:34:18.602Z,53.20
2023-09-15T10:36:58.855Z,52.52
2023-09-15T10:39:50.313Z,51.87
2023-09-15T10:42:29.705Z,50.06
2023-09-15T10:45:18.067Z,49.58
2023-09-15T10:48:05.684Z,49.34
2023-09-15T10:50:46.663Z,47.87
2023-09-15T10:53:27.568Z,48.03
2023-09-15T10:56:12.090Z,46.94
2023-09-15T10:58:52.773Z,46.66
2023-09-15T11:01:32.129Z,45.61
2023-09-15T11:04:12.824Z,44.25
2023-09-15T11:06:53.966Z,42.73
2023-09-15T11:09:33.356Z,43.27
2023-09-15T11:12:21.153Z,42.52
2023-09-15T11:15:07.229Z,42.52
2023-09-15T11:17:46.646Z,41.05
2023-09-15T11:20:26.289Z,40.46
2023-09-15T11:23:05.670Z,39.92
2023-09-15T11:25:45.037Z,40.31
2023-09-15T11:28:30.442Z,39.75
2023-09-15T11:31:14.455Z,40.03
2023-09-15T11:33:54.473Z,38.83
2023-09-15T11:36:37.724Z,37.94
2023-09-15T11:39:18.514Z,37.07
2023-09-15T11:41:59.149Z,37.46
2023-09-15T11:44:45.984Z,37.53
2023-09-15T11:47:26.035Z,36.85
2023-09-15T11:50:07.942Z,35.80
2023-09-15T11:52:48.375Z,35.50
2023-09-15T11:55:29.506Z,35.89
2023-09-15T11:58:09.077Z,36.15
2023-09-15T12:00:54.243Z,35.78
2023-09-15T12:03:34.236Z,34.57
2023-09-15T12:06:14.740Z,34.38
2023-09-15T12:08:55.725Z,34.06
2023-09-15T12:11:35.785Z,33.95
2023-09-15T12:14:15.196Z,33.13
2023-09-15T12:16:59.671Z,33.86
2023-09-15T12:19:43.417Z,32.84
2023-09-15T12:22:22.835Z,32.37
2023-09-15T12:25:02.340Z,32.37
2023-09-15T12:27:41.695Z,31.89
2023-09-15T12:30:23.655Z,31.56
2023-09-15T12:33:08.282Z,30.77
2023-09-15T12:35:47.693Z,30.47
2023-09-15T12:38:27.399Z,30.75
2023-09-15T12:41:06.770Z,29.87
2023-09-15T12:43:46.630Z,31.23
2023-09-15T12:46:26.438Z,30.34
2023-09-15T12:49:10.958Z,30.49
2023-09-15T12:51:50.289Z,30.76
2023-09-15T12:54:29.742Z,31.14
2023-09-15T12:57:09.702Z,30.15
2023-09-15T12:59:49.389Z,30.60
2023-09-15T13:02:30.118Z,30.19
2023-09-15T13:05:15.369Z,30.47
2023-09-15T13:07:54.781Z,30.26
2023-09-15T13:10:36.452Z,30.16
2023-09-15T13:13:17.202Z,29.58
2023-09-15T13:15:56.769Z,29.49
2023-09-15T13:18:36.138Z,29.88
2023-09-15T13:21:20.755Z,30.22
2023-09-15T13:24:00.091Z,29.28
2023-09-15T13:26:39.620Z,29.51
2023-09-15T13:29:18.946Z,30.00
2023-09-15T13:31:58.335Z,29.93
2023-09-15T13:34:37.678Z,29.65
2023-09-15T13:37:22.092Z,28.54
2023-09-15T13:40:01.583Z,29.16
2023-09-15T13:42:42.469Z,28.92
2023-09-15T13:45:21.940Z,28.08
2023-09-15T13:48:01.356Z,28.89
2023-09-15T13:50:40.709Z,29.44
2023-09-15T13:53:25.307Z,29.84
2023-09-15T13:56:05.208Z,29.43
2023-09-15T13:58:46.807Z,29.79
2023-09-15T14:01:27.562Z,29.20
2023-09-15T14:04:06.989Z,29.53
2023-09-15T14:06:46.428Z,29.84
2023-09-15T14:09:30.878Z,29.55
2023-09-15T14:12:11.196Z,29.67
2023-09-15T14:14:50.543Z,29.45
2023-09-15T14:17:30.393Z,29.81
2023-09-15T14:20:09.878Z,29.56
2023-09-15T14:22:49.321Z,30.10
2023-09-15T14:25:34.212Z,30.22
2023-09-15T14:28:14.213Z,29.60
2023-09-15T14:30:59.778Z,29.46
2023-09-15T14:33:39.106Z,30.10
2023-09-15T14:36:18.865Z,31.11
2023-09-15T14:38:59.091Z,31.37
2023-09-15T14:41:44.272Z,29.94
2023-09-15T14:44:28.290Z,29.66
2023-09-15T14:47:07.597Z,29.24
2023-09-15T14:49:46.956Z,29.64
2023-09-15T14:52:27.229Z,30.00
2023-09-15T14:55:06.505Z,30.59
2023-09-15T14:57:50.949Z,30.36
2023-09-15T15:00:31.958Z,30.07
2023-09-15T15:03:11.958Z,30.39
2023-09-15T15:05:51.624Z,30.45
2023-09-15T15:08:31.015Z,29.75
2023-09-15T15:11:11.354Z,29.41
2023-09-15T15:13:55.785Z,29.53
2023-09-15T15:16:35.364Z,29.83
2023-09-15T15:19:14.911Z,29.96
2023-09-15T15:21:54.509Z,29.83
2023-09-15T15:24:33.900Z,29.56
2023-09-15T15:27:14.258Z,30.03
2023-09-15T15:29:58.935Z,30.01
2023-09-15T15:32:39.357Z,29.79
2023-09-15T15:35:18.711Z,29.61
2023-09-15T15:37:58.906Z,29.45
2023-09-15T15:40:40.210Z,29.14
2023-09-15T15:43:19.872Z,29.43
2023-09-15T15:46:08.321Z,30.27
2023-09-15T15:48:48.222Z,30.29
2023-09-15T15:51:29.667Z,29.99
2023-09-15T15:54:09.041Z,30.75
2023-09-15T15:56:49.016Z,30.93
2023-09-15T15:59:28.360Z,31.21
2023-09-15T16:02:15.436Z,30.49
2023-09-15T16:04:54.746Z,31.30
2023-09-15T16:07:34.120Z,31.40
2023-09-15T16:10:14.812Z,31.28
2023-09-15T16:12:54.182Z,34.17
2023-09-15T16:15:34.008Z,36.89
2023-09-15T16:21:01.931Z,35.93
2023-09-15T16:23:41.300Z,34.82
2023-09-15T16:26:20.708Z,34.76
2023-09-15T16:29:00.065Z,35.23
2023-09-15T16:31:39.597Z,35.77
2023-09-15T16:34:24.087Z,36.79
2023-09-15T16:37:03.354Z,36.23
2023-09-15T16:39:42.872Z,36.10
2023-09-15T16:42:22.268Z,36.05
2023-09-15T16:45:04.801Z,36.63
2023-09-15T16:47:44.157Z,36.32
2023-09-15T16:50:29.324Z,36.46
2023-09-15T16:53:08.611Z,36.55
2023-09-15T16:55:48.529Z,37.22
2023-09-15T16:58:27.904Z,39.10
2023-09-15T17:01:08.378Z,40.84
2023-09-15T17:03:47.930Z,43.80
2023-09-15T17:06:33.410Z,47.13
2023-09-15T17:09:12.847Z,48.01
2023-09-15T17:11:52.514Z,48.66
2023-09-15T17:14:31.794Z,49.80
2023-09-15T17:17:11.421Z,49.06
2023-09-15T17:19:51.099Z,50.14
2023-09-15T17:22:35.531Z,50.68
2023-09-15T17:25:16.345Z,50.83
2023-09-15T17:27:55.844Z,51.21
2023-09-15T17:30:35.247Z,51.54
2023-09-15T17:33:14.879Z,52.33
2023-09-15T17:35:56.348Z,52.57
2023-09-15T17:38:42.914Z,52.86
2023-09-15T17:41:22.644Z,53.34
2023-09-15T17:44:02.213Z,53.04
2023-09-15T17:46:41.636Z,53.10
2023-09-15T17:49:20.960Z,53.78
2023-09-15T17:52:00.473Z,54.22
2023-09-15T17:54:44.967Z,54.66
2023-09-15T17:57:25.078Z,55.29
2023-09-15T18:00:05.998Z,55.71
2023-09-15T18:02:45.422Z,55.09
2023-09-15T18:05:25.194Z,55.86
2023-09-15T18:08:05.231Z,56.20
2023-09-15T18:10:49.910Z,55.92
2023-09-15T18:13:29.710Z,56.28
2023-09-15T18:16:09.680Z,56.28
2023-09-15T18:18:49.245Z,57.53
2023-09-15T18:21:28.789Z,57.44
2023-09-15T18:24:08.415Z,58.00
2023-09-15T18:26:52.757Z,58.65
2023-09-15T18:29:32.131Z,59.37
2023-09-15T18:32:11.946Z,59.28
2023-09-15T18:34:51.280Z,58.88
2023-09-15T18:37:30.753Z,59.34
2023-09-15T18:40:13.153Z,59.89
2023-09-15T18:42:57.904Z,59.84
2023-09-15T18:45:37.945Z,60.12
2023-09-15T18:48:17.609Z,60.20
2023-09-15T18:50:56.970Z,60.48
2023-09-15T18:53:36.341Z,60.59
2023-09-15T18:56:15.701Z,61.20
2023-09-15T18:59:00.183Z,61.72
2023-09-15T19:01:39.569Z,61.85
2023-09-15T19:04:19.001Z,62.51
2023-09-15T19:06:58.746Z,62.87
2023-09-15T19:09:38.123Z,62.71
2023-09-15T19:12:17.774Z,61.76
2023-09-15T19:15:02.167Z,62.13
2023-09-15T19:17:41.720Z,62.89
2023-09-15T19:20:21.257Z,63.08
2023-09-15T19:23:02.975Z,62.63
2023-09-15T19:25:42.466Z,62.47
2023-09-15T19:28:21.979Z,63.31
2023-09-15T19:31:07.878Z,63.45
2023-09-15T19:33:47.391Z,63.60
2023-09-15T19:36:26.903Z,63.74
2023-09-15T19:39:06.895Z,63.87
2023-09-15T19:41:46.355Z,64.08
2023-09-15T19:44:25.663Z,64.41
2023-09-15T19:47:10.554Z,64.61
2023-09-15T19:49:49.800Z,64.82
2023-09-15T19:52:31.887Z,65.65
2023-09-15T19:55:12.406Z,65.60
2023-09-15T19:57:57.379Z,65.56
2023-09-15T20:00:37.913Z,65.77
2023-09-15T20:03:22.808Z,66.50
2023-09-15T20:06:04.757Z,66.33
2023-09-15T20:08:44.085Z,66.47
2023-09-15T20:11:23.416Z,66.45
2023-09-15T20:14:03.137Z,67.12
2023-09-15T20:16:42.529Z,67.62
2023-09-15T20:19:27.825Z,68.05
2023-09-15T20:22:07.100Z,67.82
2023-09-15T20:24:46.730Z,68.17
2023-09-15T20:27:26.077Z,68.92
2023-09-15T20:30:05.420Z,68.91
2023-09-15T20:32:44.819Z,69.19
2023-09-15T20:35:29.233Z,69.35
2023-09-15T20:38:09.402Z,69.57
2023-09-15T20:40:49.231Z,69.15
2023-09-15T20:43:28.647Z,69.46
2023-09-15T20:46:08.016Z,69.51
2023-09-15T20:48:47.504Z,69.95
2023-09-15T20:51:32.104Z,70.20
2023-09-15T20:54:11.962Z,70.20
2023-09-15T20:56:51.287Z,70.56
2023-09-15T20:59:30.768Z,70.47
2023-09-15T21:02:10.090Z,69.91
2023-09-15T21:04:50.163Z,69.80
2023-09-15T21:07:34.556Z,70.38
2023-09-15T21:10:15.045Z,70.45
2023-09-15T21:12:55.712Z,71.02
2023-09-15T21:15:35.076Z,71.61
2023-09-15T21:18:14.830Z,72.38
2023-09-15T21:20:54.516Z,72.04
2023-09-15T21:23:39.051Z,71.41
2023-09-15T21:26:18.541Z,70.65
2023-09-15T21:28:57.858Z,71.32
2023-09-15T21:31:37.674Z,71.88
2023-09-15T21:34:17.039Z,72.18
2023-09-15T21:36:56.379Z,72.29
2023-09-15T21:39:41.560Z,72.66
2023-09-15T21:42:21.016Z,73.03
2023-09-15T21:45:00.420Z,72.73
2023-09-15T21:47:39.798Z,73.06
2023-09-15T21:50:19.121Z,72.77
2023-09-15T21:52:58.665Z,72.62
2023-09-15T21:55:43.606Z,72.76
2023-09-15T21:58:23.542Z,72.77
2023-09-15T22:01:02.908Z,72.94
2023-09-15T22:03:42.388Z,72.54
2023-09-15T22:06:22.205Z,72.25
2023-09-15T22:09:01.676Z,72.78
2023-09-15T22:11:46.195Z,73.22
2023-09-15T22:14:26.164Z,73.37
2023-09-15T22:17:05.889Z,73.84
2023-09-15T22:19:45.323Z,73.64
2023-09-15T22:22:24.656Z,74.01
2023-09-15T22:25:04.027Z,73.75
2023-09-15T22:27:49.885Z,74.00
2023-09-15T22:30:29.815Z,74.17
2023-09-15T22:33:09.590Z,74.12
2023-09-15T22:35:49.521Z,74.23
2023-09-15T22:38:28.953Z,74.93
2023-09-15T22:41:17.418Z,74.63
2023-09-15T22:44:06.176Z,73.95
2023-09-15T22:46:46.228Z,74.44
2023-09-15T22:49:25.845Z,74.81
2023-09-15T22:52:06.809Z,74.82
2023-09-15T22:54:46.465Z,74.64
2023-09-15T22:57:25.956Z,74.76
2023-09-15T23:00:15.071Z,74.71
2023-09-15T23:02:56.437Z,74.80
2023-09-15T23:05:35.868Z,75.03
2023-09-15T23:08:15.255Z,75.03
2023-09-15T23:10:54.603Z,74.84
2023-09-15T23:13:33.972Z,74.71
2023-09-15T23:16:18.484Z,75.06
2023-09-15T23:18:58.274Z,75.41
2023-09-15T23:21:37.655Z,75.89
2023-09-15T23:24:17.197Z,76.15
2023-09-15T23:26:56.465Z,75.23
2023-09-15T23:29:35.888Z,75.54
2023-09-15T23:32:20.304Z,75.78
2023-09-15T23:34:59.764Z,75.95
2023-09-15T23:37:40.151Z,76.04
2023-09-15T23:40:19.792Z,76.86
2023-09-15T23:42:59.196Z,77.03
2023-09-15T23:45:38.661Z,75.94
2023-09-15T23:48:23.505Z,75.88
2023-09-15T23:51:02.878Z,76.43
2023-09-15T23:53:42.582Z,75.93
2023-09-15T23:56:21.937Z,76.78
2023-09-15T23:59:01.429Z,77.37
